sensor_id;sensor_type;location;lat;lon;timestamp;pressure;altitude;pressure_sealevel;temperature;humidity
75788;BME280;64406;50.024;14.492;2023-04-28T00:02:01;98220.94;;;3.88;62.12
75788;BME280;64406;50.024;14.492;2023-04-28T00:04:27;98225.91;;;3.96;62.03
75788;BME280;64406;50.024;14.492;2023-04-28T00:06:53;98219.84;;;4.01;61.95
75788;BME280;64406;50.024;14.492;2023-04-28T00:09:19;98217.06;;;4.07;61.52
75788;BME280;64406;50.024;14.492;2023-04-28T00:11:45;98216.47;;;4.17;60.93
75788;BME280;64406;50.024;14.492;2023-04-28T00:14:12;98214.78;;;4.28;60.83
75788;BME280;64406;50.024;14.492;2023-04-28T00:16:37;98220.41;;;4.43;60.38
75788;BME280;64406;50.024;14.492;2023-04-28T00:19:03;98213.53;;;4.47;60.69
75788;BME280;64406;50.024;14.492;2023-04-28T00:21:29;98199.75;;;4.50;60.01
75788;BME280;64406;50.024;14.492;2023-04-28T00:23:55;98211.63;;;4.59;60.25
75788;BME280;64406;50.024;14.492;2023-04-28T00:26:20;98197.72;;;4.57;59.94
75788;BME280;64406;50.024;14.492;2023-04-28T00:28:46;98204.03;;;4.68;60.17
75788;BME280;64406;50.024;14.492;2023-04-28T00:31:13;98195.81;;;4.70;60.35
75788;BME280;64406;50.024;14.492;2023-04-28T00:33:41;98202.50;;;4.72;60.48
75788;BME280;64406;50.024;14.492;2023-04-28T00:36:07;98199.03;;;4.72;60.44
75788;BME280;64406;50.024;14.492;2023-04-28T00:38:33;98192.88;;;4.71;60.61
75788;BME280;64406;50.024;14.492;2023-04-28T00:40:59;98197.09;;;4.67;60.48
75788;BME280;64406;50.024;14.492;2023-04-28T00:43:25;98192.00;;;4.66;61.31
75788;BME280;64406;50.024;14.492;2023-04-28T00:45:51;98185.75;;;4.60;61.43
75788;BME280;64406;50.024;14.492;2023-04-28T00:48:17;98190.38;;;4.64;61.75
75788;BME280;64406;50.024;14.492;2023-04-28T00:50:43;98186.25;;;4.57;61.52
75788;BME280;64406;50.024;14.492;2023-04-28T00:53:11;98194.41;;;4.50;61.72
75788;BME280;64406;50.024;14.492;2023-04-28T00:55:37;98205.78;;;4.46;62.00
75788;BME280;64406;50.024;14.492;2023-04-28T00:58:04;98204.47;;;4.48;61.64
75788;BME280;64406;50.024;14.492;2023-04-28T01:00:29;98202.88;;;4.47;61.04
75788;BME280;64406;50.024;14.492;2023-04-28T01:02:58;98201.97;;;4.42;61.12
75788;BME280;64406;50.024;14.492;2023-04-28T01:05:25;98193.66;;;4.38;62.60
75788;BME280;64406;50.024;14.492;2023-04-28T01:07:51;98194.47;;;4.39;62.14
75788;BME280;64406;50.024;14.492;2023-04-28T01:10:17;98173.59;;;4.35;61.42
75788;BME280;64406;50.024;14.492;2023-04-28T01:12:43;98169.56;;;4.33;61.83
75788;BME280;64406;50.024;14.492;2023-04-28T01:15:16;98182.97;;;4.38;62.63
75788;BME280;64406;50.024;14.492;2023-04-28T01:17:42;98180.78;;;4.35;62.18
75788;BME280;64406;50.024;14.492;2023-04-28T01:20:08;98175.59;;;4.28;62.27
75788;BME280;64406;50.024;14.492;2023-04-28T01:22:34;98183.59;;;4.28;62.96
75788;BME280;64406;50.024;14.492;2023-04-28T01:25:00;98180.47;;;4.31;62.18
75788;BME280;64406;50.024;14.492;2023-04-28T01:27:25;98175.44;;;4.35;61.80
75788;BME280;64406;50.024;14.492;2023-04-28T01:29:51;98168.94;;;4.43;61.47
75788;BME280;64406;50.024;14.492;2023-04-28T01:32:17;98168.53;;;4.51;60.85
75788;BME280;64406;50.024;14.492;2023-04-28T01:34:43;98168.03;;;4.54;60.91
75788;BME280;64406;50.024;14.492;2023-04-28T01:37:08;98164.00;;;4.51;60.46
75788;BME280;64406;50.024;14.492;2023-04-28T01:39:34;98164.91;;;4.57;60.73
75788;BME280;64406;50.024;14.492;2023-04-28T01:42:00;98173.88;;;4.68;61.13
75788;BME280;64406;50.024;14.492;2023-04-28T01:44:26;98170.50;;;4.72;61.03
75788;BME280;64406;50.024;14.492;2023-04-28T01:46:52;98154.16;;;4.69;61.03
75788;BME280;64406;50.024;14.492;2023-04-28T01:49:18;98161.13;;;4.70;61.02
75788;BME280;64406;50.024;14.492;2023-04-28T01:51:43;98162.56;;;4.60;61.36
75788;BME280;64406;50.024;14.492;2023-04-28T01:54:09;98169.44;;;4.56;61.32
75788;BME280;64406;50.024;14.492;2023-04-28T01:56:35;98160.13;;;4.59;61.69
75788;BME280;64406;50.024;14.492;2023-04-28T01:59:00;98154.97;;;4.52;61.91
75788;BME280;64406;50.024;14.492;2023-04-28T02:01:26;98152.53;;;4.51;61.82
75788;BME280;64406;50.024;14.492;2023-04-28T02:03:52;98154.31;;;4.45;62.17
75788;BME280;64406;50.024;14.492;2023-04-28T02:06:19;98149.94;;;4.39;62.59
75788;BME280;64406;50.024;14.492;2023-04-28T02:08:45;98155.03;;;4.41;62.83
75788;BME280;64406;50.024;14.492;2023-04-28T02:11:11;98161.91;;;4.36;63.09
75788;BME280;64406;50.024;14.492;2023-04-28T02:13:37;98161.66;;;4.38;62.77
75788;BME280;64406;50.024;14.492;2023-04-28T02:16:02;98161.66;;;4.38;62.56
75788;BME280;64406;50.024;14.492;2023-04-28T02:18:28;98154.13;;;4.35;62.29
75788;BME280;64406;50.024;14.492;2023-04-28T02:20:54;98149.03;;;4.33;62.62
75788;BME280;64406;50.024;14.492;2023-04-28T02:23:20;98151.69;;;4.33;62.72
75788;BME280;64406;50.024;14.492;2023-04-28T02:25:46;98157.84;;;4.34;62.54
75788;BME280;64406;50.024;14.492;2023-04-28T02:28:11;98149.13;;;4.39;63.40
75788;BME280;64406;50.024;14.492;2023-04-28T02:30:37;98151.78;;;4.39;63.02
75788;BME280;64406;50.024;14.492;2023-04-28T02:33:03;98154.91;;;4.35;63.23
75788;BME280;64406;50.024;14.492;2023-04-28T02:35:29;98157.84;;;4.34;63.69
75788;BME280;64406;50.024;14.492;2023-04-28T02:37:54;98158.88;;;4.33;63.82
75788;BME280;64406;50.024;14.492;2023-04-28T02:40:20;98163.16;;;4.34;63.60
75788;BME280;64406;50.024;14.492;2023-04-28T02:42:45;98175.44;;;4.35;63.59
75788;BME280;64406;50.024;14.492;2023-04-28T02:45:11;98179.13;;;4.46;62.79
75788;BME280;64406;50.024;14.492;2023-04-28T02:47:37;98174.34;;;4.48;64.09
75788;BME280;64406;50.024;14.492;2023-04-28T02:50:03;98169.81;;;4.48;63.66
75788;BME280;64406;50.024;14.492;2023-04-28T02:52:29;98175.59;;;4.57;63.29
75788;BME280;64406;50.024;14.492;2023-04-28T02:54:54;98177.59;;;4.67;63.42
75788;BME280;64406;50.024;14.492;2023-04-28T02:57:22;98173.41;;;4.71;64.10
75788;BME280;64406;50.024;14.492;2023-04-28T02:59:48;98170.00;;;4.75;64.87
75788;BME280;64406;50.024;14.492;2023-04-28T03:02:13;98162.56;;;4.77;63.52
75788;BME280;64406;50.024;14.492;2023-04-28T03:04:40;98162.66;;;4.82;63.95
75788;BME280;64406;50.024;14.492;2023-04-28T03:07:06;98154.06;;;4.80;63.66
75788;BME280;64406;50.024;14.492;2023-04-28T03:09:31;98156.09;;;4.73;63.43
75788;BME280;64406;50.024;14.492;2023-04-28T03:11:57;98148.66;;;4.75;63.08
75788;BME280;64406;50.024;14.492;2023-04-28T03:14:22;98143.66;;;4.79;62.71
75788;BME280;64406;50.024;14.492;2023-04-28T03:16:48;98136.94;;;4.76;62.65
75788;BME280;64406;50.024;14.492;2023-04-28T03:19:14;98140.44;;;4.77;62.55
75788;BME280;64406;50.024;14.492;2023-04-28T03:21:39;98126.50;;;4.75;62.67
75788;BME280;64406;50.024;14.492;2023-04-28T03:24:05;98119.13;;;4.82;62.42
75788;BME280;64406;50.024;14.492;2023-04-28T03:26:31;98117.53;;;4.81;62.89
75788;BME280;64406;50.024;14.492;2023-04-28T03:28:57;98121.41;;;4.73;63.31
75788;BME280;64406;50.024;14.492;2023-04-28T03:31:22;98126.19;;;4.71;64.15
75788;BME280;64406;50.024;14.492;2023-04-28T03:33:48;98107.13;;;4.62;63.39
75788;BME280;64406;50.024;14.492;2023-04-28T03:36:14;98122.88;;;4.64;63.80
75788;BME280;64406;50.024;14.492;2023-04-28T03:38:40;98120.69;;;4.61;64.25
75788;BME280;64406;50.024;14.492;2023-04-28T03:41:06;98123.69;;;4.64;64.35
75788;BME280;64406;50.024;14.492;2023-04-28T03:43:32;98115.03;;;4.57;65.28
75788;BME280;64406;50.024;14.492;2023-04-28T03:45:59;98115.59;;;4.59;65.51
75788;BME280;64406;50.024;14.492;2023-04-28T03:48:26;98116.91;;;4.57;65.01
75788;BME280;64406;50.024;14.492;2023-04-28T03:50:51;98123.84;;;4.58;65.41
75788;BME280;64406;50.024;14.492;2023-04-28T03:53:17;98123.13;;;4.62;65.53
75788;BME280;64406;50.024;14.492;2023-04-28T03:55:43;98119.63;;;4.62;65.54
75788;BME280;64406;50.024;14.492;2023-04-28T03:58:09;98120.69;;;4.61;65.14
75788;BME280;64406;50.024;14.492;2023-04-28T04:00:34;98126.66;;;4.68;64.80
75788;BME280;64406;50.024;14.492;2023-04-28T04:03:00;98119.78;;;4.72;65.01
75788;BME280;64406;50.024;14.492;2023-04-28T04:05:26;98108.22;;;4.83;64.09
75788;BME280;64406;50.024;14.492;2023-04-28T04:07:52;98107.25;;;4.89;64.47
75788;BME280;64406;50.024;14.492;2023-04-28T04:10:17;98102.72;;;4.90;63.52
75788;BME280;64406;50.024;14.492;2023-04-28T04:12:43;98104.91;;;4.93;63.36
75788;BME280;64406;50.024;14.492;2023-04-28T04:15:09;98107.56;;;4.93;63.04
75788;BME280;64406;50.024;14.492;2023-04-28T04:17:35;98117.13;;;4.89;63.82
75788;BME280;64406;50.024;14.492;2023-04-28T04:20:00;98110.72;;;4.90;64.53
75788;BME280;64406;50.024;14.492;2023-04-28T04:22:26;98108.38;;;4.94;64.90
75788;BME280;64406;50.024;14.492;2023-04-28T04:24:52;98097.84;;;5.04;64.44
75788;BME280;64406;50.024;14.492;2023-04-28T04:27:17;98107.59;;;5.15;63.70
75788;BME280;64406;50.024;14.492;2023-04-28T04:29:43;98106.44;;;5.28;62.87
75788;BME280;64406;50.024;14.492;2023-04-28T04:32:09;98102.25;;;5.15;63.11
75788;BME280;64406;50.024;14.492;2023-04-28T04:34:35;98106.06;;;5.19;63.51
75788;BME280;64406;50.024;14.492;2023-04-28T04:37:01;98097.25;;;5.18;63.35
75788;BME280;64406;50.024;14.492;2023-04-28T04:39:26;98108.91;;;5.34;62.47
75788;BME280;64406;50.024;14.492;2023-04-28T04:41:52;98109.31;;;5.43;62.44
75788;BME280;64406;50.024;14.492;2023-04-28T04:44:17;98109.75;;;5.57;61.39
75788;BME280;64406;50.024;14.492;2023-04-28T04:46:45;98108.25;;;5.66;61.01
75788;BME280;64406;50.024;14.492;2023-04-28T04:49:11;98100.03;;;5.72;60.56
75788;BME280;64406;50.024;14.492;2023-04-28T04:51:37;98102.31;;;5.86;59.95
75788;BME280;64406;50.024;14.492;2023-04-28T04:54:02;98107.81;;;5.96;59.73
75788;BME280;64406;50.024;14.492;2023-04-28T04:56:28;98098.69;;;5.92;61.08
75788;BME280;64406;50.024;14.492;2023-04-28T04:58:54;98099.09;;;6.06;61.32
75788;BME280;64406;50.024;14.492;2023-04-28T05:01:20;98097.00;;;6.08;62.16
75788;BME280;64406;50.024;14.492;2023-04-28T05:03:45;98108.50;;;6.13;62.10
75788;BME280;64406;50.024;14.492;2023-04-28T05:06:11;98082.13;;;6.22;62.19
75788;BME280;64406;50.024;14.492;2023-04-28T05:08:36;98091.03;;;6.33;62.15
75788;BME280;64406;50.024;14.492;2023-04-28T05:11:02;98085.06;;;6.52;60.90
75788;BME280;64406;50.024;14.492;2023-04-28T05:13:28;98091.88;;;6.70;59.05
75788;BME280;64406;50.024;14.492;2023-04-28T05:15:53;98089.31;;;6.80;59.00
75788;BME280;64406;50.024;14.492;2023-04-28T05:18:19;98083.72;;;6.87;58.21
75788;BME280;64406;50.024;14.492;2023-04-28T05:20:45;98077.31;;;6.93;57.76
75788;BME280;64406;50.024;14.492;2023-04-28T05:23:10;98075.16;;;6.90;57.91
75788;BME280;64406;50.024;14.492;2023-04-28T05:25:36;98078.94;;;6.94;58.31
75788;BME280;64406;50.024;14.492;2023-04-28T05:28:01;98079.22;;;6.98;57.81
75788;BME280;64406;50.024;14.492;2023-04-28T05:30:33;98080.66;;;7.16;58.02
75788;BME280;64406;50.024;14.492;2023-04-28T05:32:58;98091.19;;;7.27;58.03
75788;BME280;64406;50.024;14.492;2023-04-28T05:35:24;98082.38;;;7.37;57.40
75788;BME280;64406;50.024;14.492;2023-04-28T05:37:50;98074.38;;;7.47;56.98
75788;BME280;64406;50.024;14.492;2023-04-28T05:40:16;98083.97;;;7.38;56.87
75788;BME280;64406;50.024;14.492;2023-04-28T05:42:41;98084.69;;;7.18;56.39
75788;BME280;64406;50.024;14.492;2023-04-28T05:45:07;98080.28;;;6.97;56.63
75788;BME280;64406;50.024;14.492;2023-04-28T05:47:34;98086.75;;;7.01;55.98
75788;BME280;64406;50.024;14.492;2023-04-28T05:50:00;98084.16;;;7.16;55.60
75788;BME280;64406;50.024;14.492;2023-04-28T05:52:25;98074.63;;;7.46;55.51
75788;BME280;64406;50.024;14.492;2023-04-28T05:54:51;98069.06;;;7.57;55.70
75788;BME280;64406;50.024;14.492;2023-04-28T05:57:16;98076.09;;;7.84;53.80
75788;BME280;64406;50.024;14.492;2023-04-28T05:59:42;98078.03;;;8.09;53.99
75788;BME280;64406;50.024;14.492;2023-04-28T06:02:08;98067.91;;;8.36;53.89
75788;BME280;64406;50.024;14.492;2023-04-28T06:04:34;98064.13;;;8.58;52.68
75788;BME280;64406;50.024;14.492;2023-04-28T06:06:59;98055.00;;;8.74;51.83
75788;BME280;64406;50.024;14.492;2023-04-28T06:09:25;98049.59;;;8.84;51.42
75788;BME280;64406;50.024;14.492;2023-04-28T06:11:51;98039.13;;;8.93;51.95
75788;BME280;64406;50.024;14.492;2023-04-28T06:14:17;98042.91;;;8.87;52.09
75788;BME280;64406;50.024;14.492;2023-04-28T06:16:42;98052.81;;;8.96;52.97
75788;BME280;64406;50.024;14.492;2023-04-28T06:19:08;98058.16;;;9.07;52.57
75788;BME280;64406;50.024;14.492;2023-04-28T06:21:34;98048.75;;;9.14;52.02
75788;BME280;64406;50.024;14.492;2023-04-28T06:24:00;98058.13;;;9.22;52.89
75788;BME280;64406;50.024;14.492;2023-04-28T06:26:26;98050.28;;;9.31;53.33
75788;BME280;64406;50.024;14.492;2023-04-28T06:28:52;98056.41;;;9.51;52.13
75788;BME280;64406;50.024;14.492;2023-04-28T06:31:17;98047.28;;;9.42;51.99
75788;BME280;64406;50.024;14.492;2023-04-28T06:33:43;98037.63;;;9.36;52.54
75788;BME280;64406;50.024;14.492;2023-04-28T06:36:09;98035.22;;;9.40;52.46
75788;BME280;64406;50.024;14.492;2023-04-28T06:38:39;98050.47;;;9.54;51.75
75788;BME280;64406;50.024;14.492;2023-04-28T06:41:05;98036.91;;;9.75;52.47
75788;BME280;64406;50.024;14.492;2023-04-28T06:43:31;98037.38;;;9.87;51.41
75788;BME280;64406;50.024;14.492;2023-04-28T06:45:57;98043.72;;;10.06;52.06
75788;BME280;64406;50.024;14.492;2023-04-28T06:48:23;98033.00;;;9.96;50.20
75788;BME280;64406;50.024;14.492;2023-04-28T06:50:50;98029.56;;;9.91;51.29
75788;BME280;64406;50.024;14.492;2023-04-28T06:53:16;98039.44;;;10.05;49.86
75788;BME280;64406;50.024;14.492;2023-04-28T06:55:41;98033.28;;;9.95;50.11
75788;BME280;64406;50.024;14.492;2023-04-28T06:58:07;98024.25;;;10.20;49.24
75788;BME280;64406;50.024;14.492;2023-04-28T07:00:33;98024.91;;;10.41;48.94
75788;BME280;64406;50.024;14.492;2023-04-28T07:03:00;98026.56;;;10.37;49.28
75788;BME280;64406;50.024;14.492;2023-04-28T07:05:26;98015.75;;;10.42;48.57
75788;BME280;64406;50.024;14.492;2023-04-28T07:07:52;98023.97;;;10.84;48.38
75788;BME280;64406;50.024;14.492;2023-04-28T07:10:18;98018.75;;;10.93;47.23
75788;BME280;64406;50.024;14.492;2023-04-28T07:12:44;98016.47;;;11.05;47.50
75788;BME280;64406;50.024;14.492;2023-04-28T07:15:10;98010.78;;;11.07;47.98
75788;BME280;64406;50.024;14.492;2023-04-28T07:17:36;98011.69;;;11.21;47.93
75788;BME280;64406;50.024;14.492;2023-04-28T07:20:02;98007.28;;;11.30;47.30
75788;BME280;64406;50.024;14.492;2023-04-28T07:22:29;98001.19;;;11.43;47.48
75788;BME280;64406;50.024;14.492;2023-04-28T07:24:55;97993.63;;;11.64;46.34
75788;BME280;64406;50.024;14.492;2023-04-28T07:27:22;98011.66;;;11.69;46.52
75788;BME280;64406;50.024;14.492;2023-04-28T07:29:47;98002.44;;;11.51;47.28
75788;BME280;64406;50.024;14.492;2023-04-28T07:32:13;98013.03;;;11.66;46.84
75788;BME280;64406;50.024;14.492;2023-04-28T07:34:39;98000.97;;;11.83;47.08
75788;BME280;64406;50.024;14.492;2023-04-28T07:37:05;97985.09;;;11.76;46.80
75788;BME280;64406;50.024;14.492;2023-04-28T07:39:32;97998.47;;;11.86;47.06
75788;BME280;64406;50.024;14.492;2023-04-28T07:42:00;97988.28;;;11.83;47.60
75788;BME280;64406;50.024;14.492;2023-04-28T07:44:27;97978.84;;;12.00;46.49
75788;BME280;64406;50.024;14.492;2023-04-28T07:46:54;97986.97;;;12.32;46.39
75788;BME280;64406;50.024;14.492;2023-04-28T07:49:20;97980.75;;;12.32;46.21
75788;BME280;64406;50.024;14.492;2023-04-28T07:51:46;97978.78;;;12.37;46.30
75788;BME280;64406;50.024;14.492;2023-04-28T07:54:12;97986.75;;;12.61;45.40
75788;BME280;64406;50.024;14.492;2023-04-28T07:56:37;97981.50;;;12.51;44.98
75788;BME280;64406;50.024;14.492;2023-04-28T07:59:03;97969.63;;;13.07;44.55
75788;BME280;64406;50.024;14.492;2023-04-28T08:01:29;97973.22;;;13.57;44.09
75788;BME280;64406;50.024;14.492;2023-04-28T08:03:54;97969.25;;;13.77;43.14
75788;BME280;64406;50.024;14.492;2023-04-28T08:06:20;97971.63;;;14.15;42.67
75788;BME280;64406;50.024;14.492;2023-04-28T08:08:46;97978.03;;;14.19;40.87
75788;BME280;64406;50.024;14.492;2023-04-28T08:11:12;97977.44;;;14.22;41.69
75788;BME280;64406;50.024;14.492;2023-04-28T08:13:37;97968.38;;;14.04;41.25
75788;BME280;64406;50.024;14.492;2023-04-28T08:16:03;97968.97;;;14.24;38.88
75788;BME280;64406;50.024;14.492;2023-04-28T08:18:29;97955.69;;;14.36;40.67
75788;BME280;64406;50.024;14.492;2023-04-28T08:20:55;97960.03;;;14.46;39.76
75788;BME280;64406;50.024;14.492;2023-04-28T08:23:20;97950.69;;;14.29;39.45
75788;BME280;64406;50.024;14.492;2023-04-28T08:25:46;97954.31;;;14.25;40.75
75788;BME280;64406;50.024;14.492;2023-04-28T08:28:12;97948.19;;;14.33;41.06
75788;BME280;64406;50.024;14.492;2023-04-28T08:30:39;97961.84;;;14.50;40.77
75788;BME280;64406;50.024;14.492;2023-04-28T08:33:04;97948.47;;;14.54;40.42
75788;BME280;64406;50.024;14.492;2023-04-28T08:35:30;97957.47;;;13.96;40.46
75788;BME280;64406;50.024;14.492;2023-04-28T08:37:56;97945.91;;;13.81;41.21
75788;BME280;64406;50.024;14.492;2023-04-28T08:43:07;97964.22;;;13.84;42.64
75788;BME280;64406;50.024;14.492;2023-04-28T08:50:56;97950.91;;;13.38;42.33
75788;BME280;64406;50.024;14.492;2023-04-28T08:53:24;97948.75;;;13.63;42.17
75788;BME280;64406;50.024;14.492;2023-04-28T08:55:55;97937.56;;;13.78;42.31
75788;BME280;64406;50.024;14.492;2023-04-28T08:58:26;97902.25;;;13.60;41.70
75788;BME280;64406;50.024;14.492;2023-04-28T09:00:53;97931.25;;;13.82;42.12
75788;BME280;64406;50.024;14.492;2023-04-28T09:03:22;97923.50;;;13.90;41.40
75788;BME280;64406;50.024;14.492;2023-04-28T09:05:48;97903.78;;;14.20;41.55
75788;BME280;64406;50.024;14.492;2023-04-28T09:08:27;97898.81;;;14.45;39.92
75788;BME280;64406;50.024;14.492;2023-04-28T09:11:13;97918.81;;;14.97;40.00
75788;BME280;64406;50.024;14.492;2023-04-28T09:13:41;97922.56;;;15.27;39.57
75788;BME280;64406;50.024;14.492;2023-04-28T09:16:06;97922.91;;;15.51;38.66
75788;BME280;64406;50.024;14.492;2023-04-28T09:18:32;97906.34;;;15.62;38.29
75788;BME280;64406;50.024;14.492;2023-04-28T09:21:08;97910.97;;;15.87;36.74
75788;BME280;64406;50.024;14.492;2023-04-28T09:23:47;97889.34;;;16.17;36.82
75788;BME280;64406;50.024;14.492;2023-04-28T09:26:16;97886.84;;;16.58;36.51
75788;BME280;64406;50.024;14.492;2023-04-28T09:28:45;97886.34;;;16.65;36.03
75788;BME280;64406;50.024;14.492;2023-04-28T09:31:21;97878.03;;;17.50;33.49
75788;BME280;64406;50.024;14.492;2023-04-28T09:34:01;97893.75;;;18.19;32.95
75788;BME280;64406;50.024;14.492;2023-04-28T09:36:27;97888.03;;;18.00;33.61
75788;BME280;64406;50.024;14.492;2023-04-28T09:38:57;97890.75;;;18.00;33.27
75788;BME280;64406;50.024;14.492;2023-04-28T09:44:16;97881.66;;;18.29;33.25
75788;BME280;64406;50.024;14.492;2023-04-28T09:46:44;97878.66;;;17.89;33.62
75788;BME280;64406;50.024;14.492;2023-04-28T09:49:11;97880.38;;;17.93;33.87
75788;BME280;64406;50.024;14.492;2023-04-28T09:51:40;97881.28;;;18.18;33.79
75788;BME280;64406;50.024;14.492;2023-04-28T09:54:06;97881.53;;;17.92;34.08
75788;BME280;64406;50.024;14.492;2023-04-28T09:56:34;97878.72;;;18.01;32.94
75788;BME280;64406;50.024;14.492;2023-04-28T09:59:03;97877.84;;;18.21;33.73
75788;BME280;64406;50.024;14.492;2023-04-28T10:01:36;97871.91;;;18.65;32.73
75788;BME280;64406;50.024;14.492;2023-04-28T10:04:03;97865.94;;;18.84;33.13
75788;BME280;64406;50.024;14.492;2023-04-28T10:06:29;97845.78;;;19.00;32.42
75788;BME280;64406;50.024;14.492;2023-04-28T10:08:55;97848.63;;;18.92;32.68
75788;BME280;64406;50.024;14.492;2023-04-28T10:11:23;97839.09;;;18.86;33.01
75788;BME280;64406;50.024;14.492;2023-04-28T10:13:50;97841.78;;;18.37;32.90
75788;BME280;64406;50.024;14.492;2023-04-28T10:16:18;97843.13;;;18.31;33.42
75788;BME280;64406;50.024;14.492;2023-04-28T10:18:44;97847.53;;;18.11;34.14
75788;BME280;64406;50.024;14.492;2023-04-28T10:21:11;97850.63;;;17.47;34.95
75788;BME280;64406;50.024;14.492;2023-04-28T10:26:17;97844.66;;;17.11;34.23
75788;BME280;64406;50.024;14.492;2023-04-28T10:28:48;97852.31;;;16.89;32.95
75788;BME280;64406;50.024;14.492;2023-04-28T10:31:17;97847.63;;;16.98;33.42
75788;BME280;64406;50.024;14.492;2023-04-28T10:33:48;97836.94;;;16.93;34.35
75788;BME280;64406;50.024;14.492;2023-04-28T10:36:49;97829.88;;;16.71;34.89
75788;BME280;64406;50.024;14.492;2023-04-28T10:39:17;97816.66;;;16.81;35.07
75788;BME280;64406;50.024;14.492;2023-04-28T10:41:45;97824.31;;;16.88;34.79
75788;BME280;64406;50.024;14.492;2023-04-28T10:47:03;97829.38;;;16.98;33.40
75788;BME280;64406;50.024;14.492;2023-04-28T10:55:28;97820.25;;;17.24;33.49
75788;BME280;64406;50.024;14.492;2023-04-28T11:00:47;97827.91;;;16.33;34.62
75788;BME280;64406;50.024;14.492;2023-04-28T11:06:30;97820.16;;;16.14;35.30
75788;BME280;64406;50.024;14.492;2023-04-28T11:08:58;97822.91;;;15.97;35.32
75788;BME280;64406;50.024;14.492;2023-04-28T11:11:31;97830.31;;;15.79;36.14
75788;BME280;64406;50.024;14.492;2023-04-28T11:19:20;97841.19;;;15.62;36.16
75788;BME280;64406;50.024;14.492;2023-04-28T11:21:48;97837.66;;;15.61;36.45
75788;BME280;64406;50.024;14.492;2023-04-28T11:24:14;97832.84;;;15.58;37.24
75788;BME280;64406;50.024;14.492;2023-04-28T11:26:40;97839.72;;;15.56;37.11
75788;BME280;64406;50.024;14.492;2023-04-28T11:29:07;97843.41;;;15.60;36.54
75788;BME280;64406;50.024;14.492;2023-04-28T11:31:33;97837.66;;;15.61;37.51
75788;BME280;64406;50.024;14.492;2023-04-28T11:36:35;97848.31;;;15.32;38.56
75788;BME280;64406;50.024;14.492;2023-04-28T11:39:02;97851.38;;;15.21;39.03
75788;BME280;64406;50.024;14.492;2023-04-28T11:41:30;97850.56;;;15.30;40.50
75788;BME280;64406;50.024;14.492;2023-04-28T11:44:00;97855.16;;;15.03;40.70
75788;BME280;64406;50.024;14.492;2023-04-28T11:46:26;97844.47;;;14.89;40.39
75788;BME280;64406;50.024;14.492;2023-04-28T11:49:02;97847.16;;;14.89;41.53
75788;BME280;64406;50.024;14.492;2023-04-28T11:51:32;97843.59;;;14.72;41.83
75788;BME280;64406;50.024;14.492;2023-04-28T11:54:01;97837.72;;;14.38;42.91
75788;BME280;64406;50.024;14.492;2023-04-28T11:56:28;97846.97;;;14.37;43.54
75788;BME280;64406;50.024;14.492;2023-04-28T12:01:50;97855.56;;;14.00;45.03
75788;BME280;64406;50.024;14.492;2023-04-28T12:07:14;97864.34;;;14.36;47.65
75788;BME280;64406;50.024;14.492;2023-04-28T12:09:43;97857.13;;;14.63;45.44
75788;BME280;64406;50.024;14.492;2023-04-28T12:12:12;97855.28;;;14.81;45.42
75788;BME280;64406;50.024;14.492;2023-04-28T12:15:01;97862.19;;;15.04;43.29
75788;BME280;64406;50.024;14.492;2023-04-28T12:17:32;97863.16;;;15.00;46.24
75788;BME280;64406;50.024;14.492;2023-04-28T12:20:00;97863.91;;;14.91;46.42
75788;BME280;64406;50.024;14.492;2023-04-28T12:22:27;97864.28;;;15.24;45.83
75788;BME280;64406;50.024;14.492;2023-04-28T12:25:10;97870.50;;;15.08;45.97
75788;BME280;64406;50.024;14.492;2023-04-28T12:27:37;97866.59;;;14.74;48.17
75788;BME280;64406;50.024;14.492;2023-04-28T12:32:44;97858.72;;;14.55;49.01
75788;BME280;64406;50.024;14.492;2023-04-28T12:35:09;97865.34;;;14.18;50.60
75788;BME280;64406;50.024;14.492;2023-04-28T12:37:36;97871.53;;;14.10;50.26
75788;BME280;64406;50.024;14.492;2023-04-28T12:40:07;97874.19;;;14.01;49.17
75788;BME280;64406;50.024;14.492;2023-04-28T12:42:34;97856.31;;;13.69;52.11
75788;BME280;64406;50.024;14.492;2023-04-28T12:44:59;97879.03;;;13.46;52.69
75788;BME280;64406;50.024;14.492;2023-04-28T12:47:26;97875.09;;;13.29;53.87
75788;BME280;64406;50.024;14.492;2023-04-28T12:49:52;97862.09;;;13.04;55.00
75788;BME280;64406;50.024;14.492;2023-04-28T12:52:21;97871.09;;;12.99;56.41
75788;BME280;64406;50.024;14.492;2023-04-28T12:54:47;97869.41;;;13.03;57.07
75788;BME280;64406;50.024;14.492;2023-04-28T12:57:16;97860.53;;;12.75;58.08
75788;BME280;64406;50.024;14.492;2023-04-28T12:59:43;97873.44;;;12.78;58.69
75788;BME280;64406;50.024;14.492;2023-04-28T13:02:09;97855.72;;;12.72;56.60
75788;BME280;64406;50.024;14.492;2023-04-28T13:04:35;97863.50;;;12.74;57.48
75788;BME280;64406;50.024;14.492;2023-04-28T13:07:02;97860.63;;;12.84;59.29
75788;BME280;64406;50.024;14.492;2023-04-28T13:09:28;97863.13;;;12.94;58.85
75788;BME280;64406;50.024;14.492;2023-04-28T13:11:54;97853.22;;;12.90;59.68
75788;BME280;64406;50.024;14.492;2023-04-28T13:14:20;97853.94;;;12.82;57.62
75788;BME280;64406;50.024;14.492;2023-04-28T13:16:46;97842.59;;;12.79;58.62
75788;BME280;64406;50.024;14.492;2023-04-28T13:19:12;97842.91;;;12.64;60.14
75788;BME280;64406;50.024;14.492;2023-04-28T13:21:42;97845.41;;;12.47;60.68
75788;BME280;64406;50.024;14.492;2023-04-28T13:24:08;97857.22;;;12.37;61.94
75788;BME280;64406;50.024;14.492;2023-04-28T13:26:34;97847.91;;;12.16;62.33
75788;BME280;64406;50.024;14.492;2023-04-28T13:29:00;97851.59;;;12.20;63.61
75788;BME280;64406;50.024;14.492;2023-04-28T13:31:30;97849.47;;;12.03;67.17
75788;BME280;64406;50.024;14.492;2023-04-28T13:33:56;97851.50;;;12.11;67.74
75788;BME280;64406;50.024;14.492;2023-04-28T13:36:22;97856.41;;;12.09;68.39
75788;BME280;64406;50.024;14.492;2023-04-28T13:38:49;97862.66;;;11.72;66.19